createdAt,value
2023-04-09T00:00:32.198Z,11.90
2023-04-09T00:02:59.341Z,11.90
2023-04-09T00:05:26.296Z,11.90
2023-04-09T00:07:53.535Z,11.90
2023-04-09T00:10:22.001Z,11.90
2023-04-09T00:12:48.882Z,11.90
2023-04-09T00:15:29.902Z,11.90
2023-04-09T00:17:57.330Z,11.90
2023-04-09T00:20:25.722Z,11.80
2023-04-09T00:22:53.016Z,11.80
2023-04-09T00:25:20.424Z,11.90
2023-04-09T00:27:49.020Z,11.70
2023-04-09T00:30:17.150Z,11.70
2023-04-09T00:32:44.098Z,11.70
2023-04-09T00:35:11.140Z,11.70
2023-04-09T00:37:37.958Z,11.70
2023-04-09T00:40:07.454Z,11.60
2023-04-09T00:42:35.999Z,11.70
2023-04-09T00:45:04.084Z,11.70
2023-04-09T00:47:31.747Z,11.70
2023-04-09T00:49:59.292Z,11.70
2023-04-09T00:52:26.948Z,11.60
2023-04-09T00:54:54.923Z,11.60
2023-04-09T00:57:21.907Z,11.60
2023-04-09T00:59:48.787Z,11.60
2023-04-09T01:02:15.973Z,11.60
2023-04-09T01:04:44.016Z,11.60
2023-04-09T01:07:48.782Z,11.60
2023-04-09T01:10:18.666Z,11.60
2023-04-09T01:13:03.955Z,11.60
2023-04-09T01:15:37.078Z,11.60
2023-04-09T01:18:08.015Z,11.60
2023-04-09T01:20:52.199Z,11.60
2023-04-09T01:23:47.793Z,11.60
2023-04-09T01:26:40.845Z,11.60
2023-04-09T01:29:09.309Z,11.60
2023-04-09T01:31:39.016Z,11.60
2023-04-09T01:34:08.809Z,11.60
2023-04-09T01:36:36.870Z,11.50
2023-04-09T01:39:06.319Z,11.50
2023-04-09T01:41:36.157Z,11.50
2023-04-09T01:44:06.717Z,11.50
2023-04-09T01:46:36.566Z,11.50
2023-04-09T01:49:03.883Z,11.50
2023-04-09T01:51:32.556Z,11.50
2023-04-09T01:54:02.596Z,11.50
2023-04-09T01:56:51.206Z,11.50
2023-04-09T01:59:20.657Z,11.50
2023-04-09T02:01:53.520Z,11.50
2023-04-09T02:04:28.556Z,11.50
2023-04-09T02:07:44.332Z,11.50
2023-04-09T02:10:13.695Z,11.50
2023-04-09T02:12:48.738Z,11.50
2023-04-09T02:15:16.639Z,11.50
2023-04-09T02:17:43.788Z,11.50
2023-04-09T02:20:11.677Z,11.50
2023-04-09T02:22:40.530Z,11.50
2023-04-09T02:25:07.665Z,11.50
2023-04-09T02:27:34.485Z,11.40
2023-04-09T02:30:01.277Z,11.40
2023-04-09T02:32:28.064Z,11.40
2023-04-09T02:34:54.863Z,11.40
2023-04-09T02:37:21.972Z,11.40
2023-04-09T02:39:50.096Z,11.40
2023-04-09T02:42:16.880Z,11.40
2023-04-09T02:44:44.506Z,11.40
2023-04-09T02:47:13.572Z,11.40
2023-04-09T02:49:41.592Z,11.40
2023-04-09T02:52:10.885Z,11.40
2023-04-09T02:54:38.791Z,11.40
2023-04-09T02:57:05.862Z,11.40
2023-04-09T02:59:40.768Z,11.40
2023-04-09T03:02:08.450Z,11.40
2023-04-09T03:04:35.431Z,11.40
2023-04-09T03:07:02.359Z,11.40
2023-04-09T03:09:31.046Z,11.40
2023-04-09T03:11:58.034Z,11.40
2023-04-09T03:14:27.850Z,11.40
2023-04-09T03:16:55.574Z,11.40
2023-04-09T03:19:22.417Z,11.40
2023-04-09T03:21:49.460Z,11.40
2023-04-09T03:24:16.284Z,11.40
2023-04-09T03:26:43.165Z,11.40
2023-04-09T03:29:09.944Z,11.40
2023-04-09T03:31:38.499Z,11.40
2023-04-09T03:34:05.434Z,11.40
2023-04-09T03:36:32.888Z,11.40
2023-04-09T03:39:00.570Z,11.40
2023-04-09T03:41:28.386Z,11.40
2023-04-09T03:43:55.158Z,11.30
2023-04-09T03:46:22.797Z,11.30
2023-04-09T03:48:49.743Z,11.30
2023-04-09T03:51:17.586Z,11.20
2023-04-09T03:53:44.792Z,11.20
2023-04-09T03:56:13.143Z,11.20
2023-04-09T03:58:40.100Z,11.20
2023-04-09T04:01:07.573Z,11.10
2023-04-09T04:03:34.656Z,11.10
2023-04-09T04:06:03.428Z,11.00
2023-04-09T04:08:32.349Z,11.00
2023-04-09T04:11:05.464Z,11.00
2023-04-09T04:13:32.494Z,10.90
2023-04-09T04:16:02.063Z,10.90
2023-04-09T04:18:28.877Z,10.90
2023-04-09T04:20:56.104Z,10.80
2023-04-09T04:23:22.992Z,10.70
2023-04-09T04:25:49.860Z,10.70
2023-04-09T04:30:44.118Z,10.60
2023-04-09T04:33:12.531Z,10.60
2023-04-09T04:35:39.354Z,10.60
2023-04-09T04:38:06.363Z,10.60
2023-04-09T04:40:33.206Z,10.60
2023-04-09T04:43:00.257Z,10.70
2023-04-09T04:45:27.065Z,10.80
2023-04-09T04:47:53.979Z,10.80
2023-04-09T04:50:20.870Z,10.80
2023-04-09T04:52:50.046Z,10.90
2023-04-09T04:55:16.952Z,10.90
2023-04-09T04:57:45.040Z,10.90
2023-04-09T05:00:12.740Z,10.90
2023-04-09T05:02:39.857Z,10.90
2023-04-09T05:05:07.008Z,10.90
2023-04-09T05:07:34.370Z,10.80
2023-04-09T05:10:01.251Z,10.80
2023-04-09T05:12:28.379Z,10.70
2023-04-09T05:14:55.149Z,10.70
2023-04-09T05:17:22.943Z,10.60
2023-04-09T05:19:53.723Z,10.60
2023-04-09T05:22:20.742Z,10.60
2023-04-09T05:24:48.015Z,10.60
2023-04-09T05:27:19.530Z,10.60
2023-04-09T05:29:46.318Z,10.60
2023-04-09T05:32:14.519Z,10.70
2023-04-09T05:34:41.929Z,10.70
2023-04-09T05:37:08.933Z,10.70
2023-04-09T05:39:35.880Z,10.70
2023-04-09T05:42:03.605Z,10.80
2023-04-09T05:44:30.689Z,10.80
2023-04-09T05:47:00.612Z,10.80
2023-04-09T05:49:27.461Z,10.80
2023-04-09T05:51:56.357Z,10.90
2023-04-09T05:54:24.157Z,11.00
2023-04-09T05:56:52.570Z,10.90
2023-04-09T05:59:19.454Z,10.80
2023-04-09T06:01:47.004Z,10.80
2023-04-09T06:04:15.054Z,10.70
2023-04-09T06:06:41.999Z,10.60
2023-04-09T06:09:08.893Z,10.60
2023-04-09T06:11:35.773Z,10.60
2023-04-09T06:14:02.565Z,10.60
2023-04-09T06:16:32.936Z,10.70
2023-04-09T06:19:01.027Z,10.70
2023-04-09T06:21:28.077Z,10.80
2023-04-09T06:23:56.111Z,10.90
2023-04-09T06:26:22.892Z,10.90
2023-04-09T06:28:49.722Z,11.00
2023-04-09T06:31:19.295Z,11.00
2023-04-09T06:33:46.842Z,11.10
2023-04-09T06:36:14.029Z,11.20
2023-04-09T06:38:41.382Z,11.30
2023-04-09T06:41:08.991Z,11.40
2023-04-09T06:43:37.989Z,11.40
2023-04-09T06:46:05.901Z,11.60
2023-04-09T06:48:33.004Z,11.60
2023-04-09T06:50:59.858Z,11.80
2023-04-09T06:53:26.821Z,12.00
2023-04-09T06:55:56.644Z,12.10
2023-04-09T06:58:24.051Z,12.30
2023-04-09T07:00:50.984Z,12.40
2023-04-09T07:03:19.122Z,12.60
2023-04-09T07:05:46.599Z,12.80
2023-04-09T07:08:17.175Z,12.90
2023-04-09T07:10:47.711Z,13.00
2023-04-09T07:13:14.571Z,13.20
2023-04-09T07:15:42.816Z,13.30
2023-04-09T07:18:13.024Z,13.40
2023-04-09T07:20:39.882Z,13.60
2023-04-09T07:23:06.693Z,13.70
2023-04-09T07:25:34.528Z,13.80
2023-04-09T07:28:01.799Z,13.90
2023-04-09T07:30:29.097Z,14.10
2023-04-09T07:32:56.279Z,14.20
2023-04-09T07:35:23.289Z,14.40
2023-04-09T07:37:52.250Z,14.40
2023-04-09T07:40:24.449Z,14.80
2023-04-09T07:42:51.284Z,15.00
2023-04-09T07:45:18.735Z,15.10
2023-04-09T07:47:45.600Z,15.20
2023-04-09T07:50:14.017Z,15.30
2023-04-09T07:52:41.058Z,15.50
2023-04-09T07:55:08.085Z,15.70
2023-04-09T07:57:35.062Z,15.90
2023-04-09T08:00:02.412Z,16.00
2023-04-09T08:02:33.544Z,15.90
2023-04-09T08:05:02.817Z,16.10
2023-04-09T08:09:56.974Z,16.50
2023-04-09T08:12:23.839Z,16.60
2023-04-09T08:14:50.872Z,16.60
2023-04-09T08:17:19.117Z,16.80
2023-04-09T08:19:49.362Z,17.00
2023-04-09T08:22:16.265Z,17.00
2023-04-09T08:24:44.579Z,17.00
2023-04-09T08:27:11.868Z,17.20
2023-04-09T08:29:40.665Z,17.20
2023-04-09T08:32:08.247Z,17.30
2023-04-09T08:34:35.392Z,17.30
2023-04-09T08:37:02.872Z,17.40
2023-04-09T08:39:29.686Z,17.60
2023-04-09T08:42:02.598Z,17.50
2023-04-09T08:44:29.995Z,17.50
2023-04-09T08:46:58.436Z,17.60
2023-04-09T08:49:26.507Z,17.80
2023-04-09T08:51:53.371Z,17.80
2023-04-09T08:54:20.469Z,17.90
2023-04-09T08:56:52.905Z,18.00
2023-04-09T08:59:19.928Z,18.20
2023-04-09T09:01:51.567Z,18.00
2023-04-09T09:04:20.005Z,17.90
2023-04-09T09:06:48.578Z,17.70
2023-04-09T09:09:16.945Z,17.80
2023-04-09T09:11:51.176Z,17.80
2023-04-09T09:14:19.776Z,18.00
2023-04-09T09:17:06.031Z,18.10
2023-04-09T09:19:33.976Z,18.10
2023-04-09T09:22:09.040Z,18.20
2023-04-09T09:24:49.597Z,18.40
2023-04-09T09:27:37.224Z,18.10
2023-04-09T09:30:06.389Z,17.80
2023-04-09T09:32:33.901Z,17.80
2023-04-09T09:35:06.060Z,17.70
2023-04-09T09:37:36.390Z,17.80
2023-04-09T09:40:04.825Z,17.80
2023-04-09T09:42:32.188Z,17.90
2023-04-09T09:44:59.682Z,17.70
2023-04-09T09:47:28.341Z,17.60
2023-04-09T09:49:56.137Z,17.40
2023-04-09T09:52:29.285Z,17.30
2023-04-09T09:55:00.837Z,17.40
2023-04-09T09:57:31.521Z,17.50
2023-04-09T10:00:04.390Z,17.40
2023-04-09T10:02:42.029Z,17.60
2023-04-09T10:05:09.903Z,17.30
2023-04-09T10:07:38.726Z,17.30
2023-04-09T10:10:07.461Z,17.10
2023-04-09T10:12:34.840Z,17.20
2023-04-09T10:15:07.432Z,17.10
2023-04-09T10:17:36.928Z,17.10
2023-04-09T10:20:29.155Z,17.10
2023-04-09T10:22:58.194Z,17.30
2023-04-09T10:25:26.593Z,17.10
2023-04-09T10:28:02.448Z,17.00
2023-04-09T10:30:36.321Z,17.00
2023-04-09T10:33:18.406Z,16.90
2023-04-09T10:35:48.073Z,16.70
2023-04-09T10:38:15.609Z,16.70
2023-04-09T10:40:51.123Z,16.70
2023-04-09T10:43:25.938Z,16.70
2023-04-09T10:45:55.753Z,16.60
2023-04-09T10:48:26.151Z,16.50
2023-04-09T10:50:54.984Z,16.60
2023-04-09T10:53:27.769Z,16.50
2023-04-09T10:55:55.572Z,16.50
2023-04-09T10:58:22.419Z,16.50
2023-04-09T11:00:51.706Z,16.50
2023-04-09T11:03:24.348Z,16.60
2023-04-09T11:06:02.017Z,16.50
2023-04-09T11:08:30.726Z,16.60
2023-04-09T11:11:01.030Z,16.50
2023-04-09T11:13:29.953Z,16.30
2023-04-09T11:15:57.831Z,16.20
2023-04-09T11:18:26.840Z,16.20
2023-04-09T11:21:01.552Z,16.40
2023-04-09T11:23:28.914Z,16.30
2023-04-09T11:25:56.589Z,16.30
2023-04-09T11:28:24.433Z,16.50
2023-04-09T11:30:52.760Z,16.40
2023-04-09T11:33:20.743Z,16.30
2023-04-09T11:35:48.488Z,16.30
2023-04-09T11:41:00.734Z,16.20
2023-04-09T11:43:27.541Z,16.20
2023-04-09T11:45:56.515Z,16.20
2023-04-09T11:48:26.815Z,16.20
2023-04-09T11:50:53.920Z,16.20
2023-04-09T11:53:22.152Z,16.30
2023-04-09T11:55:52.994Z,16.40
2023-04-09T11:58:24.076Z,16.40
2023-04-09T12:00:59.704Z,16.30
2023-04-09T12:03:29.811Z,16.30
2023-04-09T12:06:00.230Z,16.30
2023-04-09T12:08:27.956Z,16.40
2023-04-09T12:10:56.775Z,16.30
2023-04-09T12:13:34.610Z,16.40
2023-04-09T12:16:03.453Z,16.40
2023-04-09T12:18:30.463Z,16.30
2023-04-09T12:20:57.290Z,16.20
2023-04-09T12:23:24.819Z,16.20
2023-04-09T12:25:51.747Z,16.20
2023-04-09T12:28:19.583Z,16.20
2023-04-09T12:30:47.355Z,16.10
2023-04-09T12:33:15.459Z,15.90
2023-04-09T12:35:42.378Z,16.10
2023-04-09T12:38:09.251Z,16.10
2023-04-09T12:40:37.125Z,16.10
2023-04-09T12:43:04.381Z,16.10
2023-04-09T12:45:33.056Z,16.20
2023-04-09T12:47:59.958Z,16.10
2023-04-09T12:50:26.903Z,16.20
2023-04-09T12:52:53.752Z,16.00
2023-04-09T12:55:20.622Z,16.10
2023-04-09T12:57:50.523Z,16.30
2023-04-09T13:00:17.465Z,16.20
2023-04-09T13:02:44.418Z,16.30
2023-04-09T13:05:12.632Z,16.40
2023-04-09T13:07:42.337Z,16.40
2023-04-09T13:10:10.168Z,16.50
2023-04-09T13:12:36.957Z,16.50
2023-04-09T13:15:04.074Z,16.60
2023-04-09T13:17:34.115Z,16.60
2023-04-09T13:20:02.545Z,16.60
2023-04-09T13:22:29.549Z,16.60
2023-04-09T13:24:57.798Z,16.60
2023-04-09T13:27:26.957Z,16.50
2023-04-09T13:29:53.940Z,16.70
2023-04-09T13:32:23.828Z,16.70
2023-04-09T13:34:51.353Z,16.60
2023-04-09T13:37:20.672Z,16.60
2023-04-09T13:39:47.472Z,16.60
2023-04-09T13:42:14.787Z,16.60
2023-04-09T13:44:44.778Z,16.60
2023-04-09T13:47:13.314Z,16.60
2023-04-09T13:49:41.448Z,16.70
2023-04-09T13:52:09.664Z,16.70
2023-04-09T13:54:36.943Z,16.70
2023-04-09T13:57:05.109Z,16.70
2023-04-09T13:59:34.534Z,16.60
2023-04-09T14:02:04.384Z,16.60
2023-04-09T14:04:32.319Z,16.50
2023-04-09T14:06:59.123Z,16.50
2023-04-09T14:09:26.070Z,16.30
2023-04-09T14:11:55.353Z,16.20
2023-04-09T14:14:22.319Z,16.10
2023-04-09T14:16:51.292Z,16.10
2023-04-09T14:19:19.069Z,16.00
2023-04-09T14:21:47.266Z,16.10
2023-04-09T14:24:16.565Z,16.10
2023-04-09T14:26:43.423Z,16.10
2023-04-09T14:29:11.062Z,16.10
2023-04-09T14:31:42.987Z,16.10
2023-04-09T14:34:10.445Z,16.10
2023-04-09T14:36:37.266Z,16.20
2023-04-09T14:39:04.100Z,16.10
2023-04-09T14:41:34.255Z,16.00
2023-04-09T14:44:01.198Z,16.10
2023-04-09T14:46:28.087Z,16.00
2023-04-09T14:48:55.394Z,16.00
2023-04-09T14:51:22.369Z,16.00
2023-04-09T14:53:52.849Z,15.90
2023-04-09T14:56:21.349Z,16.00
2023-04-09T14:58:48.206Z,16.10
2023-04-09T15:01:16.224Z,16.10
2023-04-09T15:03:45.022Z,16.10
2023-04-09T15:06:12.630Z,16.20
2023-04-09T15:08:39.734Z,16.10
2023-04-09T15:11:06.601Z,16.00
2023-04-09T15:13:34.201Z,16.00
2023-04-09T15:16:01.332Z,16.00
2023-04-09T15:18:28.238Z,16.00
2023-04-09T15:20:55.353Z,16.10
2023-04-09T15:23:22.156Z,16.10
2023-04-09T15:25:51.439Z,16.00
2023-04-09T15:28:21.196Z,15.90
2023-04-09T15:30:51.217Z,15.90
2023-04-09T15:33:18.038Z,15.90
2023-04-09T15:35:44.895Z,15.90
2023-04-09T15:38:11.986Z,15.90
2023-04-09T15:40:41.237Z,15.80
2023-04-09T15:43:09.400Z,15.80
2023-04-09T15:45:37.449Z,15.70
2023-04-09T15:48:05.470Z,15.70
2023-04-09T15:50:33.377Z,15.70
2023-04-09T15:53:00.208Z,15.70
2023-04-09T15:55:28.097Z,15.70
2023-04-09T15:57:55.764Z,15.70
2023-04-09T16:00:24.715Z,15.80
2023-04-09T16:02:53.155Z,15.80
2023-04-09T16:05:20.385Z,15.70
2023-04-09T16:07:51.865Z,15.80
2023-04-09T16:10:19.250Z,15.70
2023-04-09T16:12:46.504Z,15.70
2023-04-09T16:15:13.332Z,15.70
2023-04-09T16:17:44.759Z,15.60
2023-04-09T16:20:11.829Z,15.60
2023-04-09T16:22:38.650Z,15.60
2023-04-09T16:25:08.014Z,15.60
2023-04-09T16:27:35.875Z,15.60
2023-04-09T16:30:04.105Z,15.60
2023-04-09T16:32:33.223Z,15.60
2023-04-09T16:35:00.945Z,15.60
2023-04-09T16:37:29.699Z,15.60
2023-04-09T16:39:57.475Z,15.50
2023-04-09T16:42:24.418Z,15.50
2023-04-09T16:44:52.186Z,15.50
2023-04-09T16:47:19.013Z,15.40
2023-04-09T16:49:47.431Z,15.40
2023-04-09T16:52:14.364Z,15.40
2023-04-09T16:54:41.703Z,15.40
2023-04-09T16:57:08.592Z,15.50
2023-04-09T16:59:42.648Z,15.40
2023-04-09T17:02:13.250Z,15.40
2023-04-09T17:04:40.062Z,15.30
2023-04-09T17:07:06.956Z,15.30
2023-04-09T17:09:33.798Z,15.20
2023-04-09T17:12:01.156Z,15.20
2023-04-09T17:14:30.574Z,15.20
2023-04-09T17:16:58.905Z,15.20
2023-04-09T17:19:25.744Z,15.20
2023-04-09T17:21:52.627Z,15.10
2023-04-09T17:24:19.828Z,15.10
2023-04-09T17:26:46.667Z,15.00
2023-04-09T17:29:13.881Z,14.90
2023-04-09T17:31:40.816Z,14.90
2023-04-09T17:34:08.707Z,14.90
2023-04-09T17:36:35.541Z,14.90
2023-04-09T17:39:02.968Z,14.90
2023-04-09T17:41:30.978Z,14.90
2023-04-09T17:44:04.118Z,14.90
2023-04-09T17:46:31.078Z,14.80
2023-04-09T17:48:58.032Z,14.80
2023-04-09T17:51:24.922Z,14.70
2023-04-09T17:53:55.482Z,14.80
2023-04-09T17:56:25.564Z,14.70
2023-04-09T17:58:53.666Z,14.80
2023-04-09T18:01:22.069Z,14.80
2023-04-09T18:03:51.556Z,14.70
2023-04-09T18:06:20.808Z,14.70
2023-04-09T18:08:49.215Z,14.60
2023-04-09T18:11:18.315Z,14.60
2023-04-09T18:13:45.405Z,14.50
2023-04-09T18:16:12.845Z,14.50
2023-04-09T18:18:40.762Z,14.50
2023-04-09T18:21:07.688Z,14.50
2023-04-09T18:23:34.677Z,14.50
2023-04-09T18:26:01.812Z,14.50
2023-04-09T18:28:28.614Z,14.40
2023-04-09T18:30:55.658Z,14.40
2023-04-09T18:33:25.876Z,14.40
2023-04-09T18:35:52.768Z,14.30
2023-04-09T18:38:21.230Z,14.30
2023-04-09T18:40:49.129Z,14.20
2023-04-09T18:43:16.221Z,14.20
2023-04-09T18:45:43.427Z,14.10
2023-04-09T18:48:10.338Z,14.00
2023-04-09T18:50:37.212Z,14.10
2023-04-09T18:53:05.674Z,14.00
2023-04-09T18:55:33.995Z,13.90
2023-04-09T18:58:00.859Z,13.90
2023-04-09T19:00:27.835Z,13.80
2023-04-09T19:02:54.900Z,13.80
2023-04-09T19:05:21.923Z,13.90
2023-04-09T19:07:49.114Z,13.80
2023-04-09T19:10:16.259Z,13.80
2023-04-09T19:12:51.002Z,13.90
2023-04-09T19:15:19.928Z,13.80
2023-04-09T19:17:47.440Z,13.80
2023-04-09T19:20:15.918Z,13.80
2023-04-09T19:22:48.488Z,13.70
2023-04-09T19:25:17.292Z,13.80
2023-04-09T19:27:47.908Z,13.80
2023-04-09T19:30:14.770Z,13.80
2023-04-09T19:32:41.902Z,13.80
2023-04-09T19:35:08.982Z,13.80
2023-04-09T19:37:35.862Z,13.70
2023-04-09T19:40:04.727Z,13.70
2023-04-09T19:42:35.001Z,13.70
2023-04-09T19:45:01.947Z,13.60
2023-04-09T19:47:29.210Z,13.60
2023-04-09T19:49:56.378Z,13.60
2023-04-09T19:52:23.202Z,13.60
2023-04-09T19:54:55.232Z,13.50
2023-04-09T19:57:22.766Z,13.50
2023-04-09T19:59:51.029Z,13.50
2023-04-09T20:02:18.853Z,13.50
2023-04-09T20:04:46.226Z,13.40
2023-04-09T20:07:13.701Z,13.40
2023-04-09T20:09:42.542Z,13.30
2023-04-09T20:12:10.171Z,13.30
2023-04-09T20:14:38.386Z,13.30
2023-04-09T20:17:08.337Z,13.20
2023-04-09T20:19:35.342Z,13.20
2023-04-09T20:22:03.927Z,13.10
2023-04-09T20:24:30.866Z,13.10
2023-04-09T20:26:59.649Z,13.10
2023-04-09T20:29:27.966Z,13.00
2023-04-09T20:31:54.911Z,13.10
2023-04-09T20:34:26.720Z,13.10
2023-04-09T20:36:54.427Z,13.10
2023-04-09T20:39:22.135Z,13.00
2023-04-09T20:41:50.493Z,13.00
2023-04-09T20:44:17.617Z,13.00
2023-04-09T20:46:44.556Z,13.00
2023-04-09T20:49:11.770Z,13.00
2023-04-09T20:51:40.852Z,13.00
2023-04-09T20:54:07.734Z,13.00
2023-04-09T20:56:34.708Z,12.90
2023-04-09T20:59:01.684Z,12.90
2023-04-09T21:01:28.758Z,12.90
2023-04-09T21:03:55.987Z,12.80
2023-04-09T21:06:22.861Z,12.80
2023-04-09T21:08:50.272Z,12.90
2023-04-09T21:11:17.395Z,12.80
2023-04-09T21:13:53.796Z,12.70
2023-04-09T21:16:21.290Z,12.70
2023-04-09T21:18:49.014Z,12.70
2023-04-09T21:21:16.156Z,12.70
2023-04-09T21:23:43.326Z,12.70
2023-04-09T21:26:11.587Z,12.60
2023-04-09T21:28:38.436Z,12.60
2023-04-09T21:31:06.799Z,12.60
2023-04-09T21:33:33.928Z,12.60
2023-04-09T21:38:42.736Z,12.40
2023-04-09T21:41:09.858Z,12.50
2023-04-09T21:43:38.545Z,12.50
2023-04-09T21:46:07.009Z,12.40
2023-04-09T21:48:34.236Z,12.40
2023-04-09T21:51:01.266Z,12.40
2023-04-09T21:53:28.346Z,12.40
2023-04-09T21:55:55.277Z,12.30
2023-04-09T21:58:23.558Z,12.30
2023-04-09T22:00:50.948Z,12.30
2023-04-09T22:03:18.062Z,12.20
2023-04-09T22:05:45.092Z,12.30
2023-04-09T22:08:13.768Z,12.20
2023-04-09T22:10:40.630Z,12.20
2023-04-09T22:13:07.890Z,12.20
2023-04-09T22:15:34.757Z,12.00
2023-04-09T22:18:01.768Z,12.10
2023-04-09T22:20:28.913Z,12.00
2023-04-09T22:22:55.818Z,12.00
2023-04-09T22:25:22.831Z,12.00
2023-04-09T22:27:54.559Z,11.90
2023-04-09T22:30:23.795Z,11.80
2023-04-09T22:32:51.726Z,11.90
2023-04-09T22:35:18.784Z,11.90
2023-04-09T22:37:47.271Z,11.90
2023-04-09T22:40:16.949Z,11.80
2023-04-09T22:42:47.100Z,11.80
2023-04-09T22:45:14.395Z,11.70
2023-04-09T22:47:41.307Z,11.70
2023-04-09T22:50:08.805Z,11.70
2023-04-09T22:52:35.613Z,11.60
2023-04-09T22:55:02.429Z,11.60
2023-04-09T22:57:30.675Z,11.60
2023-04-09T22:59:58.354Z,11.60
2023-04-09T23:02:26.811Z,11.50
2023-04-09T23:04:56.283Z,11.50
2023-04-09T23:07:24.255Z,11.40
2023-04-09T23:09:52.042Z,11.40
2023-04-09T23:12:18.882Z,11.40
2023-04-09T23:14:47.036Z,11.30
2023-04-09T23:17:15.845Z,11.30
2023-04-09T23:19:43.863Z,11.20
2023-04-09T23:22:10.866Z,11.30
2023-04-09T23:24:37.979Z,11.20
2023-04-09T23:27:04.767Z,11.20
2023-04-09T23:29:31.589Z,11.10
2023-04-09T23:31:59.363Z,11.10
2023-04-09T23:34:27.124Z,11.00
2023-04-09T23:36:54.077Z,11.10
2023-04-09T23:39:21.100Z,11.00
2023-04-09T23:41:48.073Z,10.90
2023-04-09T23:44:15.034Z,11.00
2023-04-09T23:46:42.574Z,10.90
2023-04-09T23:49:09.489Z,10.90
2023-04-09T23:51:37.298Z,10.90
2023-04-09T23:54:04.293Z,10.80
2023-04-09T23:56:32.290Z,10.80
2023-04-09T23:58:59.671Z,10.80
